Time;durP1;ratioP1;P1;durP2;ratioP2;P2;SDS_P1;SDS_P2;PMS_P1;PMS_P2;Temp;Humidity;BMP_temperature;BMP_pressure;BME280_temperature;BME280_humidity;BME280_pressure;Samples;Min_cycle;Max_cycle;Signal;HPM_P1;HPM_P2
2022/02/18 00:00:49;;;;;;;14.45;9.45;;;;;;;4.12;81.95;98168.56;4984813;28;20504;-59
2022/02/18 00:03:15;;;;;;;13.85;9.25;;;;;;;4.26;81.74;98209.53;4981861;28;20042;-59
2022/02/18 00:05:42;;;;;;;14.82;9.48;;;;;;;4.49;81.02;98230.97;4989609;28;20027;-58
2022/02/18 00:08:07;;;;;;;15.27;9.23;;;;;;;4.54;81.63;98234.00;4985818;28;20031;-59
2022/02/18 00:10:33;;;;;;;16.05;9.65;;;;;;;4.43;81.36;98232.25;4911115;28;20053;-58
2022/02/18 00:12:59;;;;;;;15.20;9.95;;;;;;;4.35;81.86;98221.69;4981847;28;20110;-58
2022/02/18 00:15:24;;;;;;;19.10;10.68;;;;;;;4.40;81.90;98227.31;4984868;28;20034;-59
2022/02/18 00:17:50;;;;;;;17.92;10.52;;;;;;;4.10;81.60;98201.31;4984296;28;20462;-59
2022/02/18 00:20:16;;;;;;;15.13;10.55;;;;;;;4.22;81.87;98197.81;4981140;28;20028;-59
2022/02/18 00:22:41;;;;;;;16.90;11.82;;;;;;;4.27;81.96;98203.44;4983401;28;20052;-59
2022/02/18 00:25:10;;;;;;;16.65;10.40;;;;;;;4.26;81.64;98208.72;4977995;28;20049;-58
2022/02/18 00:27:39;;;;;;;17.10;10.48;;;;;;;4.14;82.55;98215.56;4950465;28;20030;-59
2022/02/18 00:30:06;;;;;;;15.63;10.40;;;;;;;4.31;82.28;98215.16;4985193;28;20109;-58
2022/02/18 00:32:32;;;;;;;19.17;11.00;;;;;;;4.20;82.17;98217.72;4988050;28;20052;-58
2022/02/18 00:34:57;;;;;;;15.32;11.25;;;;;;;4.08;82.33;98216.84;4986420;28;20797;-59
2022/02/18 00:37:22;;;;;;;18.20;11.05;;;;;;;4.07;82.00;98212.66;4986515;28;20026;-59
2022/02/18 00:39:48;;;;;;;17.02;11.05;;;;;;;3.69;81.88;98164.84;4984521;28;20038;-58
2022/02/18 00:42:13;;;;;;;16.65;11.10;;;;;;;4.08;82.14;98216.84;4906218;28;21830;-59
2022/02/18 00:44:39;;;;;;;15.88;10.57;;;;;;;3.83;82.36;98190.38;4984484;28;20041;-59
2022/02/18 00:47:05;;;;;;;16.42;11.32;;;;;;;3.71;81.90;98173.25;4980514;28;20030;-58
2022/02/18 00:49:30;;;;;;;20.33;11.57;;;;;;;3.94;82.97;98217.03;4986994;28;20026;-58
2022/02/18 00:51:56;;;;;;;17.88;12.10;;;;;;;4.01;82.87;98231.91;4985487;28;20034;-59
2022/02/18 00:54:21;;;;;;;18.40;11.57;;;;;;;3.52;82.78;98173.75;4984513;28;20065;-58
2022/02/18 00:56:47;;;;;;;17.83;10.95;;;;;;;3.84;82.04;98222.03;4981279;28;20482;-59
2022/02/18 00:59:12;;;;;;;16.63;11.52;;;;;;;3.59;81.90;98158.72;4933258;28;20047;-58
2022/02/18 01:01:37;;;;;;;16.20;11.35;;;;;;;3.90;82.04;98202.78;4980591;28;20093;-58
2022/02/18 01:04:04;;;;;;;19.17;12.18;;;;;;;3.83;81.87;98207.53;4974262;28;20033;-59
2022/02/18 01:06:29;;;;;;;17.70;12.10;;;;;;;3.93;80.97;98205.94;4981462;28;20100;-59
2022/02/18 01:08:55;;;;;;;16.98;11.18;;;;;;;4.03;80.50;98214.63;4995273;28;20038;-59
2022/02/18 01:11:21;;;;;;;17.08;11.35;;;;;;;3.90;81.63;98219.00;4974865;28;20034;-59
2022/02/18 01:13:47;;;;;;;16.05;11.50;;;;;;;3.92;82.12;98219.72;4943468;28;20027;-59
2022/02/18 01:16:14;;;;;;;16.35;11.13;;;;;;;3.57;81.93;98191.44;4977613;28;20567;-59
2022/02/18 01:18:40;;;;;;;17.42;10.80;;;;;;;3.88;81.73;98233.75;4979743;28;20046;-58
2022/02/18 01:21:05;;;;;;;18.05;11.23;;;;;;;3.79;82.04;98235.22;4978060;28;20362;-59
2022/02/18 01:23:31;;;;;;;15.75;10.60;;;;;;;3.82;82.26;98242.72;4986334;28;20461;-58
2022/02/18 01:25:56;;;;;;;15.93;10.65;;;;;;;3.81;81.95;98220.50;4985796;28;20030;-59
2022/02/18 01:28:22;;;;;;;15.27;10.40;;;;;;;3.90;82.18;98228.50;4979040;28;20031;-59
2022/02/18 01:30:47;;;;;;;18.55;11.15;;;;;;;3.98;81.98;98224.44;4963852;28;20034;-58
2022/02/18 01:33:13;;;;;;;14.32;10.02;;;;;;;4.01;81.08;98237.06;4983825;28;20532;-58
2022/02/18 01:35:38;;;;;;;15.32;10.30;;;;;;;3.68;81.31;98188.91;4981627;28;20038;-58
2022/02/18 01:38:05;;;;;;;17.38;10.85;;;;;;;3.51;81.90;98172.13;4980827;28;20027;-58
2022/02/18 01:40:31;;;;;;;18.15;11.10;;;;;;;3.71;81.83;98208.44;4982805;28;20489;-59
2022/02/18 01:42:57;;;;;;;18.42;11.30;;;;;;;3.90;81.48;98233.63;4984052;28;20041;-58
2022/02/18 01:45:23;;;;;;;14.93;10.45;;;;;;;3.68;80.68;98231.81;4946201;28;20029;-59
2022/02/18 01:47:48;;;;;;;16.42;10.88;;;;;;;3.71;81.20;98240.13;4996232;28;20022;-59
2022/02/18 01:50:14;;;;;;;14.82;10.20;;;;;;;3.66;80.98;98242.19;4980893;28;20032;-59
2022/02/18 01:52:42;;;;;;;16.00;9.95;;;;;;;3.18;80.63;98176.19;4983375;28;20030;-58
2022/02/18 01:55:12;;;;;;;20.42;11.57;;;;;;;3.44;81.93;98236.00;4981009;28;20713;-59
2022/02/18 01:57:43;;;;;;;16.17;10.98;;;;;;;3.59;81.62;98239.22;4985967;28;20063;-58
2022/02/18 02:00:11;;;;;;;17.23;10.68;;;;;;;3.60;81.57;98238.31;4939781;28;20760;-58
2022/02/18 02:02:37;;;;;;;15.90;10.50;;;;;;;3.71;81.76;98244.44;4960804;28;20064;-58
2022/02/18 02:05:04;;;;;;;19.73;10.75;;;;;;;3.27;82.00;98210.69;4977953;28;20417;-58
2022/02/18 02:07:30;;;;;;;17.55;10.65;;;;;;;3.52;81.88;98248.31;4985493;28;20069;-58
2022/02/18 02:09:55;;;;;;;15.27;10.55;;;;;;;3.53;81.11;98247.38;4978401;28;20133;-57
2022/02/18 02:12:21;;;;;;;16.30;10.02;;;;;;;2.97;81.65;98203.38;4995021;28;20385;-58
2022/02/18 02:14:46;;;;;;;14.55;9.90;;;;;;;3.03;83.58;98239.75;4983420;28;20668;-58
2022/02/18 02:17:11;;;;;;;16.15;10.73;;;;;;;3.11;84.69;98239.19;4929084;28;20074;-57
2022/02/18 02:19:37;;;;;;;14.35;9.63;;;;;;;3.20;86.11;98232.59;4982642;28;20509;-58
2022/02/18 02:22:03;;;;;;;16.88;9.95;;;;;;;3.31;86.38;98222.38;4980110;28;20289;-58
2022/02/18 02:24:28;;;;;;;15.27;9.65;;;;;;;3.39;86.08;98219.28;4984973;28;20027;-58
2022/02/18 02:26:54;;;;;;;16.52;10.63;;;;;;;3.12;85.91;98178.34;4980456;28;20122;-58
2022/02/18 02:29:19;;;;;;;14.68;9.48;;;;;;;3.52;85.68;98226.94;4981462;28;20027;-58
2022/02/18 02:31:45;;;;;;;14.35;10.45;;;;;;;3.24;85.37;98186.00;4934028;28;20883;-54
2022/02/18 02:34:10;;;;;;;14.98;9.60;;;;;;;3.47;85.36;98222.13;4946604;28;20061;-58
2022/02/18 02:36:36;;;;;;;16.60;10.30;;;;;;;3.39;84.35;98209.81;4978877;28;20361;-58
2022/02/18 02:39:03;;;;;;;14.13;9.75;;;;;;;3.36;85.48;98209.19;4990549;28;20072;-58
2022/02/18 02:41:28;;;;;;;16.85;10.60;;;;;;;3.11;85.91;98171.59;4975395;28;20042;-58
2022/02/18 02:43:53;;;;;;;16.83;9.65;;;;;;;2.98;85.64;98154.47;4971292;28;20062;-58
2022/02/18 02:46:19;;;;;;;15.75;9.52;;;;;;;3.30;85.57;98194.22;4986205;28;20030;-58
2022/02/18 02:48:44;;;;;;;15.85;10.10;;;;;;;3.33;85.08;98181.16;4942120;28;20041;-58
2022/02/18 02:51:10;;;;;;;13.85;9.63;;;;;;;3.46;84.72;98192.19;4980955;28;20032;-58
2022/02/18 02:53:36;;;;;;;16.20;10.15;;;;;;;3.45;85.03;98209.38;4986030;28;20109;-58
2022/02/18 02:56:02;;;;;;;13.63;9.68;;;;;;;3.15;85.56;98207.22;4987890;28;20022;-58
2022/02/18 02:58:27;;;;;;;16.17;9.77;;;;;;;3.03;84.60;98165.25;4986417;28;20394;-58
2022/02/18 03:00:53;;;;;;;14.77;10.23;;;;;;;3.32;83.63;98228.34;4987266;28;20037;-58
2022/02/18 03:03:18;;;;;;;16.15;9.77;;;;;;;3.16;83.33;98233.72;4937258;28;20046;-58
2022/02/18 03:05:44;;;;;;;15.18;9.48;;;;;;;3.03;83.62;98233.75;4977041;28;20487;-58
2022/02/18 03:08:09;;;;;;;16.10;9.70;;;;;;;3.15;83.46;98227.78;4987974;28;20026;-58
2022/02/18 03:10:35;;;;;;;13.90;8.93;;;;;;;2.84;83.04;98188.00;4979801;28;20058;-58
2022/02/18 03:13:01;;;;;;;14.43;10.00;;;;;;;3.14;83.23;98233.84;4985559;28;20482;-58
2022/02/18 03:15:27;;;;;;;14.15;9.00;;;;;;;2.82;83.03;98187.28;4989399;28;20097;-58
2022/02/18 03:17:52;;;;;;;14.45;9.25;;;;;;;3.11;82.98;98236.63;4988648;28;20450;-58
2022/02/18 03:20:17;;;;;;;15.50;9.32;;;;;;;2.96;83.00;98233.38;4945348;28;20034;-58
2022/02/18 03:22:43;;;;;;;13.30;9.10;;;;;;;3.01;82.63;98243.31;4984642;28;20045;-58
2022/02/18 03:25:09;;;;;;;11.70;8.32;;;;;;;2.81;82.26;98207.00;4988414;28;20037;-58
2022/02/18 03:27:36;;;;;;;14.10;8.50;;;;;;;3.17;81.76;98250.78;4987590;28;20496;-58
2022/02/18 03:30:02;;;;;;;12.10;8.48;;;;;;;3.18;81.38;98260.97;4987913;28;20164;-58
2022/02/18 03:32:27;;;;;;;18.35;8.70;;;;;;;2.82;81.15;98206.06;4988553;28;20124;-58
2022/02/18 03:34:55;;;;;;;14.80;8.93;;;;;;;3.10;81.73;98259.84;4931067;28;20890;-58
2022/02/18 03:37:21;;;;;;;14.55;7.95;;;;;;;3.22;81.77;98266.72;4988949;28;20747;-58
2022/02/18 03:39:46;;;;;;;14.73;8.85;;;;;;;3.20;81.65;98259.13;4986873;28;20038;-58
2022/02/18 03:42:11;;;;;;;13.93;8.80;;;;;;;3.21;81.09;98255.63;4975236;28;20543;-58
2022/02/18 03:44:37;;;;;;;12.50;8.18;;;;;;;2.82;80.78;98226.63;4981481;28;20029;-58
2022/02/18 03:47:03;;;;;;;13.98;8.45;;;;;;;2.75;81.41;98220.25;4984628;28;20541;-58
2022/02/18 03:49:29;;;;;;;14.13;8.60;;;;;;;3.06;82.61;98279.78;4985251;28;20026;-58
2022/02/18 03:51:54;;;;;;;12.40;8.38;;;;;;;3.04;81.97;98282.47;4938842;28;20136;-58
2022/02/18 03:54:19;;;;;;;12.40;8.45;;;;;;;3.11;82.47;98288.00;4986184;28;20030;-58
2022/02/18 03:56:45;;;;;;;15.55;8.88;;;;;;;3.16;81.61;98296.22;4981709;28;20026;-58
2022/02/18 03:59:10;;;;;;;16.48;8.82;;;;;;;2.88;82.45;98298.13;4987568;28;20073;-58
2022/02/18 04:01:35;;;;;;;13.60;8.43;;;;;;;3.08;82.14;98304.47;4986568;28;20378;-58
2022/02/18 04:04:01;;;;;;;12.93;8.60;;;;;;;3.11;81.19;98294.91;4988707;28;20042;-58
2022/02/18 04:06:26;;;;;;;14.02;9.30;;;;;;;3.11;80.96;98303.44;4924971;28;21020;-58
2022/02/18 04:08:53;;;;;;;12.77;8.50;;;;;;;3.14;81.37;98297.25;4988735;28;20030;-58
2022/02/18 04:11:18;;;;;;;13.68;8.63;;;;;;;3.05;81.10;98303.84;4976880;28;20058;-58
2022/02/18 04:13:43;;;;;;;14.35;8.82;;;;;;;3.06;81.59;98305.47;4986748;28;20031;-59
2022/02/18 04:16:09;;;;;;;14.32;8.68;;;;;;;3.00;81.47;98291.31;4979727;28;20447;-58
2022/02/18 04:18:34;;;;;;;13.77;8.80;;;;;;;3.05;81.68;98299.53;4984523;28;20037;-58
2022/02/18 04:21:00;;;;;;;15.05;8.55;;;;;;;3.17;81.37;98292.72;4976114;28;20041;-58
2022/02/18 04:23:25;;;;;;;15.18;8.70;;;;;;;2.73;81.48;98255.50;4927010;28;20027;-58
2022/02/18 04:25:50;;;;;;;15.15;9.52;;;;;;;2.91;81.30;98296.25;4984651;28;20037;-58
2022/02/18 04:28:17;;;;;;;15.38;9.13;;;;;;;2.96;80.98;98291.66;4988005;28;20029;-58
2022/02/18 04:30:43;;;;;;;13.75;9.00;;;;;;;2.79;81.41;98303.03;4986181;28;20083;-58
2022/02/18 04:33:08;;;;;;;13.13;8.55;;;;;;;2.49;81.16;98276.75;4987411;28;20062;-58
2022/02/18 04:35:34;;;;;;;13.57;8.63;;;;;;;2.76;80.88;98318.66;4984291;28;20030;-58
2022/02/18 04:38:00;;;;;;;12.93;8.57;;;;;;;2.79;81.31;98316.72;4937731;28;20025;-58
2022/02/18 04:40:26;;;;;;;14.40;8.45;;;;;;;2.91;80.14;98306.53;4982930;28;20027;-58
2022/02/18 04:42:51;;;;;;;12.32;8.30;;;;;;;2.56;80.69;98261.75;4974559;28;20038;-58
2022/02/18 04:45:16;;;;;;;15.38;7.80;;;;;;;2.90;80.06;98308.25;4986027;28;20054;-58
2022/02/18 04:47:42;;;;;;;13.55;8.18;;;;;;;2.78;80.48;98322.75;4986455;28;20026;-58
2022/02/18 04:50:08;;;;;;;13.07;8.30;;;;;;;2.77;80.89;98318.53;4984578;28;20084;-58
2022/02/18 04:52:36;;;;;;;12.88;7.88;;;;;;;2.80;80.67;98308.06;4978240;28;20097;-58
2022/02/18 04:55:02;;;;;;;11.25;7.88;;;;;;;2.66;81.63;98298.72;4981735;28;20110;-58
2022/02/18 04:57:28;;;;;;;13.18;8.40;;;;;;;2.28;81.04;98263.59;4983864;28;20031;-58
2022/02/18 04:59:54;;;;;;;15.38;8.52;;;;;;;2.56;81.09;98310.53;4984775;28;20039;-58
2022/02/18 05:02:19;;;;;;;12.48;7.85;;;;;;;2.29;81.87;98254.16;4984790;28;20756;-58
2022/02/18 05:04:46;;;;;;;12.60;8.10;;;;;;;2.74;81.89;98305.94;4983442;28;20019;-58
2022/02/18 05:07:11;;;;;;;13.02;8.35;;;;;;;2.69;81.88;98302.84;4985982;28;20034;-58
2022/02/18 05:09:36;;;;;;;13.88;8.70;;;;;;;2.78;82.31;98302.22;4978889;28;20029;-58
2022/02/18 05:12:02;;;;;;;21.00;8.77;;;;;;;2.47;81.96;98247.78;4981103;28;20250;-58
2022/02/18 05:14:28;;;;;;;12.32;8.35;;;;;;;2.66;82.23;98303.84;4985179;28;20018;-58
2022/02/18 05:16:53;;;;;;;13.85;8.43;;;;;;;2.49;81.53;98281.88;4979823;28;20030;-58
2022/02/18 05:19:18;;;;;;;15.27;9.38;;;;;;;2.33;82.13;98260.72;4981955;28;20052;-58
2022/02/18 05:21:44;;;;;;;13.88;8.45;;;;;;;2.67;82.08;98320.91;4980499;28;20125;-58
2022/02/18 05:24:09;;;;;;;13.73;8.85;;;;;;;2.65;82.67;98325.31;4980313;28;20182;-58
2022/02/18 05:26:35;;;;;;;15.43;9.48;;;;;;;2.35;82.53;98268.31;4982587;28;20081;-58
2022/02/18 05:29:01;;;;;;;13.18;8.52;;;;;;;2.80;82.82;98322.66;4982171;28;20521;-58
2022/02/18 05:31:26;;;;;;;14.52;8.82;;;;;;;2.82;82.59;98320.81;4983282;28;20034;-58
2022/02/18 05:33:52;;;;;;;14.73;9.00;;;;;;;2.91;82.28;98324.50;4986232;28;20453;-58
2022/02/18 05:36:17;;;;;;;14.15;9.02;;;;;;;2.79;82.87;98334.69;4983119;28;20085;-58
2022/02/18 05:38:43;;;;;;;15.85;9.50;;;;;;;2.65;83.66;98335.59;4966332;28;20094;-58
2022/02/18 05:41:15;;;;;;;13.63;9.10;;;;;;;2.35;83.65;98279.41;4978410;28;20030;-58
2022/02/18 05:43:40;;;;;;;14.82;9.40;;;;;;;2.44;84.17;98278.78;4983517;28;20026;-57
2022/02/18 05:46:06;;;;;;;15.43;9.13;;;;;;;2.54;84.01;98299.56;4980200;28;20373;-58
2022/02/18 05:48:33;;;;;;;16.65;10.55;;;;;;;2.74;85.16;98341.03;4985080;28;20469;-58
2022/02/18 05:51:00;;;;;;;17.45;11.52;;;;;;;2.66;85.38;98342.34;4984381;28;20386;-58
2022/02/18 05:53:25;;;;;;;18.08;11.52;;;;;;;2.81;85.76;98355.94;4984252;28;20062;-58
2022/02/18 05:55:51;;;;;;;19.38;12.32;;;;;;;2.75;85.97;98363.22;4985663;28;20109;-58
2022/02/18 05:58:17;;;;;;;18.52;12.93;;;;;;;2.35;87.57;98346.13;4989101;28;20026;-58
2022/02/18 06:00:43;;;;;;;20.75;12.52;;;;;;;2.66;87.61;98393.69;4978751;28;20038;-57
2022/02/18 06:03:08;;;;;;;18.20;12.02;;;;;;;2.72;86.77;98389.09;4984600;28;20030;-58
2022/02/18 06:05:33;;;;;;;19.83;13.55;;;;;;;2.83;86.97;98405.47;4984174;28;20034;-58
2022/02/18 06:07:59;;;;;;;21.88;14.18;;;;;;;3.00;87.66;98408.66;4984064;28;20501;-59
2022/02/18 06:10:24;;;;;;;21.60;14.68;;;;;;;3.06;87.32;98398.78;4982424;28;20508;-58
2022/02/18 06:12:50;;;;;;;28.60;16.98;;;;;;;2.98;88.43;98397.66;4974087;28;20018;-58
2022/02/18 06:15:16;;;;;;;30.05;19.40;;;;;;;3.16;88.35;98406.72;4978253;28;20038;-58
2022/02/18 06:17:41;;;;;;;28.95;19.55;;;;;;;3.12;88.49;98396.72;4984367;28;20019;-58
2022/02/18 06:20:08;;;;;;;32.13;20.20;;;;;;;2.74;89.28;98346.16;4979029;28;20038;-58
2022/02/18 06:22:36;;;;;;;29.60;20.70;;;;;;;3.05;89.54;98404.84;4977745;28;20700;-58
2022/02/18 06:25:03;;;;;;;30.70;20.45;;;;;;;3.20;89.27;98413.28;4972108;28;20721;-58
2022/02/18 06:27:29;;;;;;;36.35;22.48;;;;;;;3.22;89.52;98410.63;4978164;28;20124;-58
2022/02/18 06:29:56;;;;;;;39.70;23.55;;;;;;;3.21;89.19;98407.22;4970884;28;20031;-58
2022/02/18 06:32:22;;;;;;;35.05;22.60;;;;;;;3.13;89.38;98424.06;4983846;28;20022;-58
2022/02/18 06:34:47;;;;;;;37.47;22.73;;;;;;;2.58;90.32;98370.28;4983085;28;20132;-59
2022/02/18 06:37:12;;;;;;;39.63;23.60;;;;;;;2.92;91.76;98428.88;4976365;28;20114;-59
2022/02/18 06:39:38;;;;;;;34.55;22.33;;;;;;;3.04;92.29;98435.78;4982870;28;20105;-59
2022/02/18 06:42:04;;;;;;;37.85;24.73;;;;;;;3.29;92.33;98432.41;4978755;28;20341;-58
2022/02/18 06:44:29;;;;;;;37.85;23.85;;;;;;;2.96;91.79;98382.34;4971144;28;20092;-59
2022/02/18 06:46:56;;;;;;;40.10;24.35;;;;;;;3.27;91.65;98442.78;4978677;28;20088;-59
2022/02/18 06:49:21;;;;;;;39.60;25.85;;;;;;;3.30;92.36;98444.31;4953405;28;20529;-58
2022/02/18 06:51:48;;;;;;;42.95;25.35;;;;;;;3.33;92.49;98438.97;4982388;28;20054;-58
2022/02/18 06:54:13;;;;;;;43.13;27.10;;;;;;;3.42;92.40;98445.25;4980836;28;20375;-58
2022/02/18 06:56:39;;;;;;;47.33;28.08;;;;;;;3.46;93.16;98444.94;4984952;28;20034;-58
2022/02/18 06:59:04;;;;;;;48.15;30.83;;;;;;;3.56;94.61;98442.56;4982587;28;20124;-58
2022/02/18 07:01:30;;;;;;;49.90;31.60;;;;;;;3.20;94.09;98384.19;4981846;28;20492;-58
2022/02/18 07:03:56;;;;;;;47.75;30.65;;;;;;;3.30;93.83;98392.09;4983949;28;20109;-58
2022/02/18 07:06:21;;;;;;;50.85;31.95;;;;;;;3.59;94.23;98439.78;4980181;28;20101;-58
2022/02/18 07:08:46;;;;;;;50.92;31.98;;;;;;;3.40;93.79;98406.78;4982189;28;20137;-58
2022/02/18 07:11:12;;;;;;;55.70;32.72;;;;;;;3.47;93.91;98413.16;4982755;28;20499;-58
2022/02/18 07:13:37;;;;;;;58.33;34.13;;;;;;;3.71;94.16;98465.59;4980956;28;20117;-58
2022/02/18 07:16:03;;;;;;;58.83;33.70;;;;;;;3.73;94.51;98456.03;4978226;28;20038;-58
2022/02/18 07:18:29;;;;;;;66.28;36.70;;;;;;;3.81;95.41;98482.03;4970634;28;20038;-58
2022/02/18 07:20:54;;;;;;;67.50;36.00;;;;;;;3.83;94.93;98481.00;4979776;28;20104;-58
2022/02/18 07:23:20;;;;;;;69.13;37.72;;;;;;;3.89;94.83;98496.94;4983965;28;21764;-58
2022/02/18 07:25:45;;;;;;;67.93;36.97;;;;;;;3.99;94.53;98518.53;4978407;28;20461;-58
2022/02/18 07:28:10;;;;;;;63.35;36.28;;;;;;;3.99;94.29;98524.50;4981583;28;20509;-58
2022/02/18 07:30:36;;;;;;;67.68;37.58;;;;;;;4.03;94.55;98538.81;4980756;28;20030;-58
2022/02/18 07:33:01;;;;;;;70.47;36.40;;;;;;;4.07;94.96;98542.00;4986071;28;20790;-58
2022/02/18 07:35:32;;;;;;;72.20;38.78;;;;;;;4.12;94.65;98541.66;4987757;28;20042;-58
2022/02/18 07:38:02;;;;;;;72.60;40.30;;;;;;;4.01;95.11;98530.34;4976434;28;20034;-58
2022/02/18 07:40:27;;;;;;;69.85;38.55;;;;;;;4.17;94.42;98531.88;4987970;28;20553;-58
2022/02/18 07:42:53;;;;;;;65.63;36.92;;;;;;;4.15;93.82;98539.72;4986973;28;20124;-58
2022/02/18 07:45:18;;;;;;;66.90;36.47;;;;;;;4.01;93.83;98494.34;4987416;28;20432;-58
2022/02/18 07:47:44;;;;;;;66.85;38.40;;;;;;;4.30;93.49;98547.31;4980439;28;20030;-58
2022/02/18 07:50:09;;;;;;;70.40;38.13;;;;;;;4.00;93.89;98505.56;4974389;28;20048;-57
2022/02/18 07:52:36;;;;;;;68.00;36.88;;;;;;;4.42;93.74;98555.00;4994498;28;20041;-58
2022/02/18 07:55:03;;;;;;;69.60;38.35;;;;;;;4.51;93.49;98553.53;4985715;28;20057;-58
2022/02/18 07:57:29;;;;;;;74.40;39.63;;;;;;;4.30;92.99;98529.28;4980124;28;20197;-58
2022/02/18 07:59:54;;;;;;;74.32;39.47;;;;;;;4.13;93.66;98500.41;4976474;28;20154;-58
2022/02/18 08:02:19;;;;;;;70.47;39.75;;;;;;;4.46;93.86;98529.84;4987857;28;20026;-58
2022/02/18 08:04:45;;;;;;;70.95;38.85;;;;;;;4.50;93.30;98538.19;4981064;28;20027;-59
2022/02/18 08:07:10;;;;;;;71.95;39.53;;;;;;;4.53;93.00;98543.94;4986372;28;20105;-58
2022/02/18 08:09:36;;;;;;;73.63;40.58;;;;;;;4.57;92.78;98537.63;4987909;28;20026;-58
2022/02/18 08:12:02;;;;;;;77.72;41.13;;;;;;;4.57;92.90;98547.94;4987601;28;20050;-59
2022/02/18 08:14:28;;;;;;;72.28;39.33;;;;;;;4.61;93.02;98553.69;4984949;28;20062;-58
2022/02/18 08:16:53;;;;;;;71.47;39.72;;;;;;;4.64;93.03;98550.91;4982696;28;20374;-58
2022/02/18 08:19:23;;;;;;;74.57;40.15;;;;;;;4.62;92.62;98568.22;4982242;28;20339;-58
2022/02/18 08:21:48;;;;;;;82.30;42.40;;;;;;;4.77;92.95;98576.63;4986488;28;20108;-58
2022/02/18 08:24:18;;;;;;;77.00;40.88;;;;;;;4.77;92.22;98566.31;4987284;28;20034;-58
2022/02/18 08:26:50;;;;;;;75.25;39.40;;;;;;;4.47;92.62;98504.91;4987094;28;20470;-58
2022/02/18 08:29:16;;;;;;;67.32;38.72;;;;;;;4.89;91.38;98559.47;4985485;28;20763;-58
2022/02/18 08:31:42;;;;;;;72.18;40.13;;;;;;;4.76;91.99;98536.31;4987965;28;20126;-58
2022/02/18 08:34:07;;;;;;;70.70;39.88;;;;;;;4.92;92.15;98564.41;5000013;28;20046;-58
2022/02/18 08:36:35;;;;;;;77.05;41.20;;;;;;;4.84;92.25;98556.38;4985029;28;20050;-58
2022/02/18 08:39:03;;;;;;;79.07;39.72;;;;;;;4.79;92.47;98544.66;4987382;28;20038;-58
2022/02/18 08:41:29;;;;;;;71.30;39.33;;;;;;;4.77;91.57;98536.22;4984827;28;20848;-58
2022/02/18 08:43:57;;;;;;;81.70;42.08;;;;;;;5.06;91.50;98576.31;4985714;28;20736;-58
2022/02/18 08:46:24;;;;;;;75.47;40.10;;;;;;;5.15;91.90;98568.72;4984497;28;20377;-58
2022/02/18 08:48:49;;;;;;;73.82;40.38;;;;;;;5.16;90.78;98578.09;4987150;28;20045;-58
2022/02/18 08:51:15;;;;;;;87.18;40.65;;;;;;;5.01;91.58;98540.53;4986843;28;20369;-58
2022/02/18 08:53:40;;;;;;;86.97;42.88;;;;;;;5.31;91.13;98567.59;4987227;28;20117;-58
2022/02/18 08:56:06;;;;;;;89.30;40.90;;;;;;;5.31;90.64;98572.75;4984109;28;20022;-59
2022/02/18 08:58:31;;;;;;;75.65;40.85;;;;;;;5.03;90.65;98530.13;4985865;28;20104;-58
2022/02/18 09:00:57;;;;;;;83.97;41.40;;;;;;;5.04;89.96;98537.75;4979274;28;20037;-58
2022/02/18 09:03:22;;;;;;;78.50;40.42;;;;;;;5.07;90.71;98541.84;4982768;28;20502;-58
2022/02/18 09:05:48;;;;;;;75.47;40.80;;;;;;;5.29;89.99;98575.44;4986342;28;20487;-58
2022/02/18 09:08:13;;;;;;;74.35;39.70;;;;;;;5.43;89.88;98584.75;4973998;28;20789;-58
2022/02/18 09:10:41;;;;;;;75.22;40.05;;;;;;;5.48;90.42;98592.97;4981503;28;20029;-58
2022/02/18 09:13:08;;;;;;;73.53;38.55;;;;;;;5.49;89.03;98588.63;4972480;28;20035;-59
2022/02/18 09:15:33;;;;;;;75.35;39.03;;;;;;;5.59;88.95;98597.34;4986184;28;20097;-58
2022/02/18 09:17:59;;;;;;;77.72;38.85;;;;;;;5.61;89.00;98598.06;4985367;28;20527;-58
2022/02/18 09:20:25;;;;;;;76.85;38.13;;;;;;;5.32;88.90;98562.31;4999921;28;20034;-59
2022/02/18 09:22:50;;;;;;;79.15;44.05;;;;;;;5.63;89.27;98611.66;4985848;28;20105;-58
2022/02/18 09:25:16;;;;;;;86.53;51.13;;;;;;;5.56;88.83;98613.84;4986364;28;20023;-58
2022/02/18 09:27:41;;;;;;;88.15;49.05;;;;;;;5.58;89.11;98608.59;4983657;28;20105;-58
2022/02/18 09:30:10;;;;;;;76.50;42.40;;;;;;;5.62;88.36;98591.94;4983945;28;20025;-58
2022/02/18 09:32:36;;;;;;;83.75;45.05;;;;;;;5.75;87.44;98609.94;4986185;28;20088;-58
2022/02/18 09:35:03;;;;;;;75.30;41.05;;;;;;;5.78;87.45;98601.94;4983110;28;20133;-58
2022/02/18 09:37:28;;;;;;;79.05;40.67;;;;;;;5.68;87.20;98590.69;4984695;28;20559;-58
2022/02/18 09:39:53;;;;;;;74.15;40.53;;;;;;;5.74;87.51;98598.78;4989124;28;20030;-58
2022/02/18 09:42:20;;;;;;;76.13;39.42;;;;;;;5.75;87.37;98590.13;4983705;28;20039;-58
2022/02/18 09:44:48;;;;;;;75.22;40.10;;;;;;;5.78;87.25;98576.16;4986275;28;20043;-58
2022/02/18 09:47:14;;;;;;;71.72;38.53;;;;;;;5.78;87.17;98581.31;4983836;28;20034;-58
2022/02/18 09:49:41;;;;;;;74.93;39.05;;;;;;;5.85;86.11;98592.81;4978784;28;20440;-58
2022/02/18 09:52:07;;;;;;;74.78;37.95;;;;;;;5.88;nan;98594.38;4983886;28;20030;-57
2022/02/18 09:54:33;;;;;;;67.75;36.22;;;;;;;5.90;86.40;98590.72;4972405;28;20066;-58
2022/02/18 09:57:00;;;;;;;76.68;38.55;;;;;;;5.92;85.36;98591.41;4986095;28;20023;-58
2022/02/18 09:59:27;;;;;;;72.75;39.42;;;;;;;5.92;85.24;98593.19;4985148;28;20026;-58
2022/02/18 10:01:52;;;;;;;71.97;38.95;;;;;;;5.75;85.75;98582.38;4984335;28;20027;-58
2022/02/18 10:04:18;;;;;;;70.90;38.45;;;;;;;5.85;85.51;98600.56;4993189;28;20382;-58
2022/02/18 10:06:43;;;;;;;71.82;38.22;;;;;;;5.76;85.38;98573.69;4998079;28;20109;-58
2022/02/18 10:09:09;;;;;;;74.10;38.25;;;;;;;5.76;85.99;98578.84;4969880;28;20034;-58
2022/02/18 10:11:52;;;;;;;76.22;38.35;;;;;;;5.74;85.89;98572.97;4985630;28;20077;-58
2022/02/18 10:14:18;;;;;;;74.55;38.53;;;;;;;5.87;85.95;98608.19;4975064;28;20034;-58
2022/02/18 10:16:44;;;;;;;72.68;37.50;;;;;;;6.00;85.35;98621.03;4984416;28;20367;-58
2022/02/18 10:19:10;;;;;;;74.95;37.17;;;;;;;6.06;85.15;98616.22;4983714;28;20474;-58
2022/02/18 10:21:37;;;;;;;69.22;38.55;;;;;;;6.11;84.43;98618.44;4981854;28;20030;-59
2022/02/18 10:24:14;;;;;;;77.43;40.40;;;;;;;6.03;84.65;98605.31;4976379;28;20038;-58
2022/02/18 10:26:41;;;;;;;75.30;38.00;;;;;;;6.17;85.03;98602.50;4981652;28;20130;-58
2022/02/18 10:29:08;;;;;;;72.80;38.50;;;;;;;6.16;84.93;98582.78;4985563;28;20030;-58
2022/02/18 10:31:34;;;;;;;72.97;39.15;;;;;;;6.25;84.95;98589.00;4984197;28;20038;-58
2022/02/18 10:34:07;;;;;;;72.85;37.75;;;;;;;6.34;84.90;98596.03;4978858;28;20089;-58
2022/02/18 10:36:44;;;;;;;72.25;38.10;;;;;;;6.38;84.09;98586.31;4983156;28;20489;-58
2022/02/18 10:39:38;;;;;;;71.32;37.03;;;;;;;6.41;83.75;98586.06;4983652;28;20133;-58
2022/02/18 10:42:04;;;;;;;73.30;37.55;;;;;;;6.46;84.04;98589.09;4979926;28;20505;-58
2022/02/18 10:44:34;;;;;;;70.10;38.83;;;;;;;6.25;83.58;98550.28;4974536;28;20037;-57
2022/02/18 10:47:05;;;;;;;73.40;38.88;;;;;;;6.46;83.10;98602.84;5000450;28;20126;-58
2022/02/18 10:49:38;;;;;;;72.07;37.25;;;;;;;6.39;83.14;98588.78;4984035;28;20034;-58
2022/02/18 10:52:15;;;;;;;72.55;40.45;;;;;;;6.31;83.35;98571.25;4983367;28;20109;-58
2022/02/18 10:54:40;;;;;;;75.88;38.35;;;;;;;6.42;84.16;98577.38;4978425;28;20113;-58
2022/02/18 10:57:19;;;;;;;75.47;40.15;;;;;;;6.28;83.91;98555.19;4982595;28;20109;-58
2022/02/18 10:59:45;;;;;;;69.90;39.20;;;;;;;6.46;83.46;98576.19;4984085;28;20044;-58
2022/02/18 11:02:11;;;;;;;74.78;38.42;;;;;;;6.46;82.89;98578.78;4979389;28;20027;-59
2022/02/18 11:04:37;;;;;;;74.53;38.15;;;;;;;6.23;83.82;98555.56;4992633;28;20053;-58
2022/02/18 11:07:13;;;;;;;74.57;38.15;;;;;;;6.05;83.72;98542.28;4983641;28;20070;-58
2022/02/18 11:09:39;;;;;;;75.45;40.15;;;;;;;6.29;84.03;98591.22;4979300;28;20065;-58
2022/02/18 11:12:09;;;;;;;73.15;40.85;;;;;;;5.99;83.70;98534.19;4972282;28;20031;-58
2022/02/18 11:14:37;;;;;;;75.18;40.97;;;;;;;6.26;84.22;98575.16;4981349;28;20057;-58
2022/02/18 11:17:02;;;;;;;73.65;39.75;;;;;;;6.00;84.47;98526.34;4985560;28;20026;-58
2022/02/18 11:19:28;;;;;;;73.47;39.75;;;;;;;6.26;84.69;98567.41;4974138;28;20028;-58
2022/02/18 11:21:53;;;;;;;77.70;40.80;;;;;;;6.29;84.02;98569.75;4977686;28;20042;-58